sensor_id;sensor_type;location;lat;lon;timestamp;P1;durP1;ratioP1;P2;durP2;ratioP2
42714;SDS011;28351;51.480;5.706;2023-03-05T00:01:31;5.30;;;1.27;;
42714;SDS011;28351;51.480;5.706;2023-03-05T00:03:57;3.95;;;1.50;;
42714;SDS011;28351;51.480;5.706;2023-03-05T00:06:25;6.20;;;1.13;;
42714;SDS011;28351;51.480;5.706;2023-03-05T00:08:53;5.70;;;1.30;;
42714;SDS011;28351;51.480;5.706;2023-03-05T00:11:22;4.97;;;1.63;;
42714;SDS011;28351;51.480;5.706;2023-03-05T00:13:52;7.20;;;1.80;;
42714;SDS011;28351;51.480;5.706;2023-03-05T00:16:18;3.78;;;1.02;;
42714;SDS011;28351;51.480;5.706;2023-03-05T00:18:45;8.05;;;1.52;;
42714;SDS011;28351;51.480;5.706;2023-03-05T00:21:16;3.95;;;1.60;;
42714;SDS011;28351;51.480;5.706;2023-03-05T00:23:46;4.57;;;1.38;;
42714;SDS011;28351;51.480;5.706;2023-03-05T00:26:16;6.50;;;1.50;;
42714;SDS011;28351;51.480;5.706;2023-03-05T00:28:43;9.43;;;1.95;;
42714;SDS011;28351;51.480;5.706;2023-03-05T00:31:13;8.43;;;1.42;;
42714;SDS011;28351;51.480;5.706;2023-03-05T00:33:43;4.50;;;1.35;;
42714;SDS011;28351;51.480;5.706;2023-03-05T00:36:09;3.72;;;1.65;;
42714;SDS011;28351;51.480;5.706;2023-03-05T00:38:35;5.82;;;1.92;;
42714;SDS011;28351;51.480;5.706;2023-03-05T00:41:01;8.82;;;1.50;;
42714;SDS011;28351;51.480;5.706;2023-03-05T00:43:27;5.18;;;1.35;;
42714;SDS011;28351;51.480;5.706;2023-03-05T00:45:53;3.53;;;1.50;;
42714;SDS011;28351;51.480;5.706;2023-03-05T00:48:19;5.75;;;2.00;;
42714;SDS011;28351;51.480;5.706;2023-03-05T00:50:46;5.80;;;1.73;;
42714;SDS011;28351;51.480;5.706;2023-03-05T00:53:12;14.93;;;1.88;;
42714;SDS011;28351;51.480;5.706;2023-03-05T00:55:38;10.20;;;1.73;;
42714;SDS011;28351;51.480;5.706;2023-03-05T00:58:03;7.72;;;1.98;;
42714;SDS011;28351;51.480;5.706;2023-03-05T01:00:29;7.97;;;1.73;;
42714;SDS011;28351;51.480;5.706;2023-03-05T01:02:55;10.38;;;2.10;;
42714;SDS011;28351;51.480;5.706;2023-03-05T01:05:20;6.72;;;2.10;;
42714;SDS011;28351;51.480;5.706;2023-03-05T01:07:46;9.05;;;2.03;;
42714;SDS011;28351;51.480;5.706;2023-03-05T01:10:12;7.95;;;1.55;;
42714;SDS011;28351;51.480;5.706;2023-03-05T01:12:38;6.43;;;1.98;;
42714;SDS011;28351;51.480;5.706;2023-03-05T01:15:04;10.73;;;1.85;;
42714;SDS011;28351;51.480;5.706;2023-03-05T01:17:30;6.88;;;1.60;;
42714;SDS011;28351;51.480;5.706;2023-03-05T01:19:56;6.68;;;1.73;;
42714;SDS011;28351;51.480;5.706;2023-03-05T01:22:21;8.90;;;1.90;;
42714;SDS011;28351;51.480;5.706;2023-03-05T01:24:47;7.75;;;2.50;;
42714;SDS011;28351;51.480;5.706;2023-03-05T01:27:12;8.93;;;2.00;;
42714;SDS011;28351;51.480;5.706;2023-03-05T01:29:38;8.23;;;1.90;;
42714;SDS011;28351;51.480;5.706;2023-03-05T01:32:04;5.13;;;1.90;;
42714;SDS011;28351;51.480;5.706;2023-03-05T01:34:29;10.20;;;2.33;;
42714;SDS011;28351;51.480;5.706;2023-03-05T01:36:55;4.43;;;1.90;;
42714;SDS011;28351;51.480;5.706;2023-03-05T01:39:20;6.75;;;1.85;;
42714;SDS011;28351;51.480;5.706;2023-03-05T01:41:46;7.78;;;1.92;;
42714;SDS011;28351;51.480;5.706;2023-03-05T01:44:30;7.35;;;2.40;;
42714;SDS011;28351;51.480;5.706;2023-03-05T01:46:56;10.65;;;1.92;;
42714;SDS011;28351;51.480;5.706;2023-03-05T01:49:29;5.20;;;1.92;;
42714;SDS011;28351;51.480;5.706;2023-03-05T01:54:56;6.82;;;1.80;;
42714;SDS011;28351;51.480;5.706;2023-03-05T01:57:41;6.30;;;2.15;;
42714;SDS011;28351;51.480;5.706;2023-03-05T02:00:16;7.32;;;2.08;;
42714;SDS011;28351;51.480;5.706;2023-03-05T02:02:49;5.68;;;2.28;;
42714;SDS011;28351;51.480;5.706;2023-03-05T02:05:24;6.47;;;2.30;;
42714;SDS011;28351;51.480;5.706;2023-03-05T02:07:54;7.45;;;1.98;;
42714;SDS011;28351;51.480;5.706;2023-03-05T02:10:21;5.80;;;1.98;;
42714;SDS011;28351;51.480;5.706;2023-03-05T02:12:51;3.55;;;1.75;;
42714;SDS011;28351;51.480;5.706;2023-03-05T02:17:44;10.30;;;2.00;;
42714;SDS011;28351;51.480;5.706;2023-03-05T02:20:12;9.93;;;2.03;;
42714;SDS011;28351;51.480;5.706;2023-03-05T02:22:40;8.02;;;2.00;;
42714;SDS011;28351;51.480;5.706;2023-03-05T02:25:25;10.43;;;2.00;;
42714;SDS011;28351;51.480;5.706;2023-03-05T02:30:36;5.97;;;2.08;;
42714;SDS011;28351;51.480;5.706;2023-03-05T02:33:02;4.65;;;2.30;;
42714;SDS011;28351;51.480;5.706;2023-03-05T02:35:29;5.70;;;1.65;;
42714;SDS011;28351;51.480;5.706;2023-03-05T02:37:55;5.88;;;2.10;;
42714;SDS011;28351;51.480;5.706;2023-03-05T02:40:21;6.07;;;1.70;;
42714;SDS011;28351;51.480;5.706;2023-03-05T02:42:47;8.82;;;1.90;;
42714;SDS011;28351;51.480;5.706;2023-03-05T02:45:13;9.50;;;2.30;;
42714;SDS011;28351;51.480;5.706;2023-03-05T02:47:39;11.90;;;2.05;;
42714;SDS011;28351;51.480;5.706;2023-03-05T02:50:05;4.90;;;1.90;;
42714;SDS011;28351;51.480;5.706;2023-03-05T02:52:31;6.38;;;1.98;;
42714;SDS011;28351;51.480;5.706;2023-03-05T02:54:57;14.30;;;2.10;;
42714;SDS011;28351;51.480;5.706;2023-03-05T02:57:22;6.90;;;1.88;;
42714;SDS011;28351;51.480;5.706;2023-03-05T02:59:48;9.20;;;1.67;;
42714;SDS011;28351;51.480;5.706;2023-03-05T03:02:14;7.55;;;2.00;;
42714;SDS011;28351;51.480;5.706;2023-03-05T03:04:40;10.02;;;2.20;;
42714;SDS011;28351;51.480;5.706;2023-03-05T03:07:11;5.93;;;2.00;;
42714;SDS011;28351;51.480;5.706;2023-03-05T03:09:37;11.35;;;2.00;;
42714;SDS011;28351;51.480;5.706;2023-03-05T03:12:03;8.38;;;1.73;;
42714;SDS011;28351;51.480;5.706;2023-03-05T03:14:34;7.63;;;1.73;;
42714;SDS011;28351;51.480;5.706;2023-03-05T03:17:05;5.13;;;1.75;;
42714;SDS011;28351;51.480;5.706;2023-03-05T03:19:32;6.25;;;2.13;;
42714;SDS011;28351;51.480;5.706;2023-03-05T03:21:58;9.23;;;2.42;;
42714;SDS011;28351;51.480;5.706;2023-03-05T03:24:24;8.05;;;1.90;;
42714;SDS011;28351;51.480;5.706;2023-03-05T03:26:50;9.30;;;2.08;;
42714;SDS011;28351;51.480;5.706;2023-03-05T03:29:16;7.60;;;1.60;;
42714;SDS011;28351;51.480;5.706;2023-03-05T03:31:42;4.75;;;1.52;;
42714;SDS011;28351;51.480;5.706;2023-03-05T03:34:10;8.82;;;1.80;;
42714;SDS011;28351;51.480;5.706;2023-03-05T03:36:41;3.78;;;1.52;;
42714;SDS011;28351;51.480;5.706;2023-03-05T03:39:10;6.32;;;1.27;;
42714;SDS011;28351;51.480;5.706;2023-03-05T03:41:39;7.45;;;2.33;;
42714;SDS011;28351;51.480;5.706;2023-03-05T03:44:06;10.23;;;2.33;;
42714;SDS011;28351;51.480;5.706;2023-03-05T03:46:34;3.97;;;1.75;;
42714;SDS011;28351;51.480;5.706;2023-03-05T03:49:01;4.68;;;1.60;;
42714;SDS011;28351;51.480;5.706;2023-03-05T03:51:26;7.75;;;2.30;;
42714;SDS011;28351;51.480;5.706;2023-03-05T03:53:58;9.40;;;1.95;;
42714;SDS011;28351;51.480;5.706;2023-03-05T03:56:24;3.40;;;2.40;;
42714;SDS011;28351;51.480;5.706;2023-03-05T03:58:51;6.45;;;2.05;;
42714;SDS011;28351;51.480;5.706;2023-03-05T04:01:18;4.38;;;1.73;;
42714;SDS011;28351;51.480;5.706;2023-03-05T04:03:44;2.88;;;1.77;;
42714;SDS011;28351;51.480;5.706;2023-03-05T04:06:10;4.57;;;1.77;;
42714;SDS011;28351;51.480;5.706;2023-03-05T04:08:35;3.22;;;1.70;;
42714;SDS011;28351;51.480;5.706;2023-03-05T04:11:01;7.63;;;2.00;;
42714;SDS011;28351;51.480;5.706;2023-03-05T04:13:27;10.93;;;2.08;;
42714;SDS011;28351;51.480;5.706;2023-03-05T04:15:53;7.72;;;1.50;;
42714;SDS011;28351;51.480;5.706;2023-03-05T04:18:19;5.22;;;1.83;;
42714;SDS011;28351;51.480;5.706;2023-03-05T04:20:44;7.22;;;2.05;;
42714;SDS011;28351;51.480;5.706;2023-03-05T04:23:10;5.32;;;1.42;;
42714;SDS011;28351;51.480;5.706;2023-03-05T04:25:36;6.97;;;1.63;;
42714;SDS011;28351;51.480;5.706;2023-03-05T04:28:01;5.03;;;1.77;;
42714;SDS011;28351;51.480;5.706;2023-03-05T04:30:27;7.22;;;2.10;;
42714;SDS011;28351;51.480;5.706;2023-03-05T04:32:52;11.00;;;2.22;;
42714;SDS011;28351;51.480;5.706;2023-03-05T04:35:18;5.68;;;2.15;;
42714;SDS011;28351;51.480;5.706;2023-03-05T04:37:44;5.53;;;2.10;;
42714;SDS011;28351;51.480;5.706;2023-03-05T04:40:10;9.00;;;1.95;;
42714;SDS011;28351;51.480;5.706;2023-03-05T04:42:35;7.85;;;2.30;;
42714;SDS011;28351;51.480;5.706;2023-03-05T04:45:01;9.73;;;2.20;;
42714;SDS011;28351;51.480;5.706;2023-03-05T04:47:27;6.35;;;1.73;;
42714;SDS011;28351;51.480;5.706;2023-03-05T04:49:53;8.93;;;2.25;;
42714;SDS011;28351;51.480;5.706;2023-03-05T04:52:19;6.13;;;1.70;;
42714;SDS011;28351;51.480;5.706;2023-03-05T04:54:44;4.95;;;1.75;;
42714;SDS011;28351;51.480;5.706;2023-03-05T04:57:10;8.00;;;2.35;;
42714;SDS011;28351;51.480;5.706;2023-03-05T04:59:36;5.53;;;2.13;;
42714;SDS011;28351;51.480;5.706;2023-03-05T05:02:02;6.55;;;2.35;;
42714;SDS011;28351;51.480;5.706;2023-03-05T05:04:28;5.05;;;1.98;;
42714;SDS011;28351;51.480;5.706;2023-03-05T05:06:56;5.72;;;1.80;;
42714;SDS011;28351;51.480;5.706;2023-03-05T05:09:23;5.97;;;2.00;;
42714;SDS011;28351;51.480;5.706;2023-03-05T05:11:49;9.10;;;2.00;;
42714;SDS011;28351;51.480;5.706;2023-03-05T05:14:15;10.77;;;2.10;;
42714;SDS011;28351;51.480;5.706;2023-03-05T05:16:40;5.80;;;1.80;;
42714;SDS011;28351;51.480;5.706;2023-03-05T05:19:06;7.82;;;2.03;;
42714;SDS011;28351;51.480;5.706;2023-03-05T05:21:32;8.52;;;2.13;;
42714;SDS011;28351;51.480;5.706;2023-03-05T05:23:58;4.75;;;1.90;;
42714;SDS011;28351;51.480;5.706;2023-03-05T05:26:24;3.65;;;1.88;;
42714;SDS011;28351;51.480;5.706;2023-03-05T05:28:49;7.53;;;2.05;;
42714;SDS011;28351;51.480;5.706;2023-03-05T05:31:15;3.67;;;1.77;;
42714;SDS011;28351;51.480;5.706;2023-03-05T05:33:44;5.28;;;1.70;;
42714;SDS011;28351;51.480;5.706;2023-03-05T05:36:14;7.85;;;2.10;;
42714;SDS011;28351;51.480;5.706;2023-03-05T05:38:43;5.38;;;2.03;;
42714;SDS011;28351;51.480;5.706;2023-03-05T05:41:11;5.03;;;2.05;;
42714;SDS011;28351;51.480;5.706;2023-03-05T05:43:39;5.60;;;2.63;;
42714;SDS011;28351;51.480;5.706;2023-03-05T05:46:06;4.35;;;2.20;;
42714;SDS011;28351;51.480;5.706;2023-03-05T05:48:34;5.03;;;2.05;;
42714;SDS011;28351;51.480;5.706;2023-03-05T05:51:08;7.70;;;1.83;;
42714;SDS011;28351;51.480;5.706;2023-03-05T05:53:38;8.38;;;2.78;;
42714;SDS011;28351;51.480;5.706;2023-03-05T05:56:05;5.13;;;2.20;;
42714;SDS011;28351;51.480;5.706;2023-03-05T05:58:32;3.72;;;2.55;;
42714;SDS011;28351;51.480;5.706;2023-03-05T06:00:58;9.70;;;2.85;;
42714;SDS011;28351;51.480;5.706;2023-03-05T06:03:24;9.48;;;2.85;;
42714;SDS011;28351;51.480;5.706;2023-03-05T06:05:49;6.38;;;2.53;;
42714;SDS011;28351;51.480;5.706;2023-03-05T06:08:16;14.02;;;2.92;;
42714;SDS011;28351;51.480;5.706;2023-03-05T06:10:42;11.00;;;2.85;;
42714;SDS011;28351;51.480;5.706;2023-03-05T06:13:08;8.63;;;3.35;;
42714;SDS011;28351;51.480;5.706;2023-03-05T06:15:33;7.97;;;2.67;;
42714;SDS011;28351;51.480;5.706;2023-03-05T06:17:59;5.55;;;2.70;;
42714;SDS011;28351;51.480;5.706;2023-03-05T06:20:25;6.22;;;2.75;;
42714;SDS011;28351;51.480;5.706;2023-03-05T06:22:51;8.80;;;3.13;;
42714;SDS011;28351;51.480;5.706;2023-03-05T06:25:17;4.82;;;2.90;;
42714;SDS011;28351;51.480;5.706;2023-03-05T06:27:43;10.60;;;3.75;;
42714;SDS011;28351;51.480;5.706;2023-03-05T06:30:09;6.15;;;3.58;;
42714;SDS011;28351;51.480;5.706;2023-03-05T06:32:35;8.07;;;2.85;;
42714;SDS011;28351;51.480;5.706;2023-03-05T06:35:04;16.25;;;3.78;;
42714;SDS011;28351;51.480;5.706;2023-03-05T06:37:30;9.32;;;3.40;;
42714;SDS011;28351;51.480;5.706;2023-03-05T06:39:58;10.18;;;3.10;;
42714;SDS011;28351;51.480;5.706;2023-03-05T06:42:24;5.45;;;3.22;;
42714;SDS011;28351;51.480;5.706;2023-03-05T06:44:50;4.65;;;2.88;;
42714;SDS011;28351;51.480;5.706;2023-03-05T06:47:15;8.88;;;2.88;;
42714;SDS011;28351;51.480;5.706;2023-03-05T06:49:41;6.18;;;2.92;;
42714;SDS011;28351;51.480;5.706;2023-03-05T06:52:06;8.50;;;3.38;;
42714;SDS011;28351;51.480;5.706;2023-03-05T06:54:34;9.57;;;3.13;;
42714;SDS011;28351;51.480;5.706;2023-03-05T06:57:00;7.00;;;3.53;;
42714;SDS011;28351;51.480;5.706;2023-03-05T06:59:29;6.63;;;3.40;;
42714;SDS011;28351;51.480;5.706;2023-03-05T07:02:00;10.52;;;3.80;;
42714;SDS011;28351;51.480;5.706;2023-03-05T07:04:26;9.95;;;3.95;;
42714;SDS011;28351;51.480;5.706;2023-03-05T07:06:51;8.82;;;3.97;;
42714;SDS011;28351;51.480;5.706;2023-03-05T07:09:17;8.48;;;3.85;;
42714;SDS011;28351;51.480;5.706;2023-03-05T07:11:43;8.60;;;4.20;;
42714;SDS011;28351;51.480;5.706;2023-03-05T07:14:09;6.25;;;4.50;;
42714;SDS011;28351;51.480;5.706;2023-03-05T07:19:04;11.20;;;4.38;;
42714;SDS011;28351;51.480;5.706;2023-03-05T07:21:32;9.73;;;4.72;;
42714;SDS011;28351;51.480;5.706;2023-03-05T07:23:59;12.32;;;4.85;;
42714;SDS011;28351;51.480;5.706;2023-03-05T07:26:26;15.35;;;5.20;;
42714;SDS011;28351;51.480;5.706;2023-03-05T07:28:52;12.45;;;5.18;;
42714;SDS011;28351;51.480;5.706;2023-03-05T07:31:20;12.80;;;5.25;;
42714;SDS011;28351;51.480;5.706;2023-03-05T07:33:50;10.45;;;6.45;;
42714;SDS011;28351;51.480;5.706;2023-03-05T07:36:16;13.43;;;5.32;;
42714;SDS011;28351;51.480;5.706;2023-03-05T07:38:42;11.15;;;5.78;;
42714;SDS011;28351;51.480;5.706;2023-03-05T07:41:09;9.93;;;5.97;;
42714;SDS011;28351;51.480;5.706;2023-03-05T07:43:36;13.38;;;5.75;;
42714;SDS011;28351;51.480;5.706;2023-03-05T07:46:06;8.25;;;5.85;;
42714;SDS011;28351;51.480;5.706;2023-03-05T07:48:33;11.35;;;6.03;;
42714;SDS011;28351;51.480;5.706;2023-03-05T07:51:00;10.73;;;5.47;;
42714;SDS011;28351;51.480;5.706;2023-03-05T07:53:26;14.23;;;6.07;;
42714;SDS011;28351;51.480;5.706;2023-03-05T07:55:52;11.18;;;5.47;;
42714;SDS011;28351;51.480;5.706;2023-03-05T07:58:18;10.35;;;5.57;;
42714;SDS011;28351;51.480;5.706;2023-03-05T08:00:43;8.60;;;5.35;;
42714;SDS011;28351;51.480;5.706;2023-03-05T08:03:09;12.30;;;5.22;;
42714;SDS011;28351;51.480;5.706;2023-03-05T08:05:38;9.35;;;5.15;;
42714;SDS011;28351;51.480;5.706;2023-03-05T08:08:04;10.77;;;5.20;;
42714;SDS011;28351;51.480;5.706;2023-03-05T08:10:30;9.25;;;5.05;;
42714;SDS011;28351;51.480;5.706;2023-03-05T08:12:56;12.52;;;5.05;;
42714;SDS011;28351;51.480;5.706;2023-03-05T08:15:21;8.85;;;4.95;;
42714;SDS011;28351;51.480;5.706;2023-03-05T08:17:47;10.05;;;4.35;;
42714;SDS011;28351;51.480;5.706;2023-03-05T08:20:12;9.80;;;4.63;;
42714;SDS011;28351;51.480;5.706;2023-03-05T08:22:38;9.45;;;4.18;;
42714;SDS011;28351;51.480;5.706;2023-03-05T08:25:04;10.68;;;4.63;;
42714;SDS011;28351;51.480;5.706;2023-03-05T08:27:31;10.68;;;4.70;;
42714;SDS011;28351;51.480;5.706;2023-03-05T08:29:56;7.35;;;4.85;;
42714;SDS011;28351;51.480;5.706;2023-03-05T08:32:22;9.18;;;5.20;;
42714;SDS011;28351;51.480;5.706;2023-03-05T08:34:48;7.97;;;3.97;;
42714;SDS011;28351;51.480;5.706;2023-03-05T08:37:14;6.57;;;4.10;;
42714;SDS011;28351;51.480;5.706;2023-03-05T08:39:39;7.28;;;4.25;;
42714;SDS011;28351;51.480;5.706;2023-03-05T08:42:05;9.73;;;4.53;;
42714;SDS011;28351;51.480;5.706;2023-03-05T08:44:31;7.75;;;4.57;;
42714;SDS011;28351;51.480;5.706;2023-03-05T08:46:56;12.43;;;5.47;;
42714;SDS011;28351;51.480;5.706;2023-03-05T08:49:22;11.13;;;4.93;;
42714;SDS011;28351;51.480;5.706;2023-03-05T08:51:47;9.57;;;4.78;;
42714;SDS011;28351;51.480;5.706;2023-03-05T08:54:16;12.88;;;5.35;;
42714;SDS011;28351;51.480;5.706;2023-03-05T08:56:42;10.13;;;4.10;;
42714;SDS011;28351;51.480;5.706;2023-03-05T08:59:08;6.43;;;3.58;;
42714;SDS011;28351;51.480;5.706;2023-03-05T09:01:34;11.70;;;4.28;;
42714;SDS011;28351;51.480;5.706;2023-03-05T09:03:59;4.50;;;3.22;;
42714;SDS011;28351;51.480;5.706;2023-03-05T09:06:25;7.18;;;3.53;;
42714;SDS011;28351;51.480;5.706;2023-03-05T09:08:51;6.43;;;3.05;;
42714;SDS011;28351;51.480;5.706;2023-03-05T09:11:17;7.20;;;3.60;;
42714;SDS011;28351;51.480;5.706;2023-03-05T09:13:43;6.70;;;2.92;;
42714;SDS011;28351;51.480;5.706;2023-03-05T09:16:13;7.80;;;3.08;;
42714;SDS011;28351;51.480;5.706;2023-03-05T09:18:40;4.03;;;2.80;;
42714;SDS011;28351;51.480;5.706;2023-03-05T09:21:08;5.35;;;2.85;;
42714;SDS011;28351;51.480;5.706;2023-03-05T09:23:42;3.55;;;2.67;;
42714;SDS011;28351;51.480;5.706;2023-03-05T09:26:10;3.22;;;2.47;;
42714;SDS011;28351;51.480;5.706;2023-03-05T09:28:37;4.35;;;2.33;;
42714;SDS011;28351;51.480;5.706;2023-03-05T09:31:03;4.25;;;2.33;;
42714;SDS011;28351;51.480;5.706;2023-03-05T09:33:30;3.10;;;2.10;;
42714;SDS011;28351;51.480;5.706;2023-03-05T09:35:57;4.10;;;2.20;;
42714;SDS011;28351;51.480;5.706;2023-03-05T09:38:23;7.75;;;2.45;;
42714;SDS011;28351;51.480;5.706;2023-03-05T09:41:01;2.30;;;1.70;;
42714;SDS011;28351;51.480;5.706;2023-03-05T09:46:30;2.63;;;1.80;;
42714;SDS011;28351;51.480;5.706;2023-03-05T09:51:44;1.98;;;1.30;;
42714;SDS011;28351;51.480;5.706;2023-03-05T09:56:46;2.28;;;1.30;;
42714;SDS011;28351;51.480;5.706;2023-03-05T10:02:28;2.33;;;1.60;;
42714;SDS011;28351;51.480;5.706;2023-03-05T10:05:17;4.68;;;1.48;;
42714;SDS011;28351;51.480;5.706;2023-03-05T10:07:59;1.25;;;0.98;;
42714;SDS011;28351;51.480;5.706;2023-03-05T10:10:34;4.03;;;1.80;;
42714;SDS011;28351;51.480;5.706;2023-03-05T10:13:04;2.15;;;1.30;;
42714;SDS011;28351;51.480;5.706;2023-03-05T10:18:28;3.95;;;1.30;;
42714;SDS011;28351;51.480;5.706;2023-03-05T10:21:10;2.75;;;1.20;;
42714;SDS011;28351;51.480;5.706;2023-03-05T10:29:17;2.03;;;1.25;;
42714;SDS011;28351;51.480;5.706;2023-03-05T10:40:05;3.22;;;1.35;;
42714;SDS011;28351;51.480;5.706;2023-03-05T10:45:17;2.50;;;1.30;;
42714;SDS011;28351;51.480;5.706;2023-03-05T10:50:30;1.75;;;1.10;;
42714;SDS011;28351;51.480;5.706;2023-03-05T10:53:34;2.55;;;0.80;;
42714;SDS011;28351;51.480;5.706;2023-03-05T10:56:01;1.55;;;0.88;;
42714;SDS011;28351;51.480;5.706;2023-03-05T10:58:28;1.52;;;1.05;;
42714;SDS011;28351;51.480;5.706;2023-03-05T11:09:19;3.10;;;0.93;;
42714;SDS011;28351;51.480;5.706;2023-03-05T11:12:04;3.75;;;1.10;;
42714;SDS011;28351;51.480;5.706;2023-03-05T11:15:03;1.20;;;1.00;;
42714;SDS011;28351;51.480;5.706;2023-03-05T11:17:35;3.60;;;0.98;;
42714;SDS011;28351;51.480;5.706;2023-03-05T11:25:27;2.60;;;1.00;;
42714;SDS011;28351;51.480;5.706;2023-03-05T11:27:55;3.58;;;0.80;;
42714;SDS011;28351;51.480;5.706;2023-03-05T11:33:05;1.17;;;0.73;;
42714;SDS011;28351;51.480;5.706;2023-03-05T11:35:33;1.42;;;0.95;;
42714;SDS011;28351;51.480;5.706;2023-03-05T11:38:02;3.22;;;0.90;;
42714;SDS011;28351;51.480;5.706;2023-03-05T11:40:29;2.08;;;1.00;;
42714;SDS011;28351;51.480;5.706;2023-03-05T11:42:59;3.15;;;0.77;;
42714;SDS011;28351;51.480;5.706;2023-03-05T11:45:27;1.85;;;0.80;;
42714;SDS011;28351;51.480;5.706;2023-03-05T11:47:59;1.20;;;0.70;;
42714;SDS011;28351;51.480;5.706;2023-03-05T11:50:31;2.78;;;0.60;;
42714;SDS011;28351;51.480;5.706;2023-03-05T11:53:06;0.50;;;0.50;;
42714;SDS011;28351;51.480;5.706;2023-03-05T11:56:00;1.50;;;0.57;;
42714;SDS011;28351;51.480;5.706;2023-03-05T11:58:35;0.60;;;0.50;;
42714;SDS011;28351;51.480;5.706;2023-03-05T12:01:12;1.48;;;0.73;;
42714;SDS011;28351;51.480;5.706;2023-03-05T12:03:44;1.17;;;0.80;;
42714;SDS011;28351;51.480;5.706;2023-03-05T12:08:51;0.88;;;0.80;;
42714;SDS011;28351;51.480;5.706;2023-03-05T12:11:22;1.30;;;0.80;;
42714;SDS011;28351;51.480;5.706;2023-03-05T12:13:52;1.95;;;1.05;;
42714;SDS011;28351;51.480;5.706;2023-03-05T12:24:32;1.48;;;0.90;;
42714;SDS011;28351;51.480;5.706;2023-03-05T12:32:00;1.52;;;0.90;;
42714;SDS011;28351;51.480;5.706;2023-03-05T12:34:40;2.10;;;1.00;;
42714;SDS011;28351;51.480;5.706;2023-03-05T12:40:00;2.03;;;0.90;;
42714;SDS011;28351;51.480;5.706;2023-03-05T12:52:51;1.15;;;0.85;;
42714;SDS011;28351;51.480;5.706;2023-03-05T12:55:27;2.35;;;1.00;;
42714;SDS011;28351;51.480;5.706;2023-03-05T12:58:57;1.20;;;0.88;;
42714;SDS011;28351;51.480;5.706;2023-03-05T13:03:45;2.33;;;1.08;;
42714;SDS011;28351;51.480;5.706;2023-03-05T13:06:23;1.85;;;1.10;;
42714;SDS011;28351;51.480;5.706;2023-03-05T13:09:06;3.33;;;1.13;;
42714;SDS011;28351;51.480;5.706;2023-03-05T13:11:45;1.75;;;1.23;;
42714;SDS011;28351;51.480;5.706;2023-03-05T13:14:33;1.40;;;1.00;;
42714;SDS011;28351;51.480;5.706;2023-03-05T13:17:25;1.65;;;1.13;;
42714;SDS011;28351;51.480;5.706;2023-03-05T13:22:46;1.85;;;1.05;;
42714;SDS011;28351;51.480;5.706;2023-03-05T13:25:13;2.97;;;1.10;;
42714;SDS011;28351;51.480;5.706;2023-03-05T13:27:46;1.10;;;0.98;;
42714;SDS011;28351;51.480;5.706;2023-03-05T13:30:19;1.20;;;0.90;;
42714;SDS011;28351;51.480;5.706;2023-03-05T13:32:50;1.92;;;1.10;;
42714;SDS011;28351;51.480;5.706;2023-03-05T13:35:16;1.00;;;0.90;;
42714;SDS011;28351;51.480;5.706;2023-03-05T13:37:44;0.70;;;0.70;;
42714;SDS011;28351;51.480;5.706;2023-03-05T13:42:43;3.40;;;1.10;;
42714;SDS011;28351;51.480;5.706;2023-03-05T13:45:22;1.50;;;0.70;;
42714;SDS011;28351;51.480;5.706;2023-03-05T13:47:57;2.40;;;1.15;;
42714;SDS011;28351;51.480;5.706;2023-03-05T13:50:28;1.30;;;0.70;;
42714;SDS011;28351;51.480;5.706;2023-03-05T13:53:21;1.58;;;1.08;;
42714;SDS011;28351;51.480;5.706;2023-03-05T13:55:50;2.67;;;0.85;;
42714;SDS011;28351;51.480;5.706;2023-03-05T14:01:14;3.97;;;0.82;;
42714;SDS011;28351;51.480;5.706;2023-03-05T14:03:52;3.78;;;0.70;;
42714;SDS011;28351;51.480;5.706;2023-03-05T14:08:55;2.05;;;0.90;;
42714;SDS011;28351;51.480;5.706;2023-03-05T14:11:25;1.95;;;0.82;;
42714;SDS011;28351;51.480;5.706;2023-03-05T14:13:57;3.45;;;0.90;;
42714;SDS011;28351;51.480;5.706;2023-03-05T14:16:29;2.45;;;1.10;;
42714;SDS011;28351;51.480;5.706;2023-03-05T14:18:59;2.25;;;0.90;;
42714;SDS011;28351;51.480;5.706;2023-03-05T14:21:46;1.42;;;1.02;;
42714;SDS011;28351;51.480;5.706;2023-03-05T14:24:18;1.42;;;0.90;;
42714;SDS011;28351;51.480;5.706;2023-03-05T14:26:50;1.98;;;1.10;;
42714;SDS011;28351;51.480;5.706;2023-03-05T14:29:24;3.03;;;1.17;;
42714;SDS011;28351;51.480;5.706;2023-03-05T14:34:25;3.28;;;1.27;;
42714;SDS011;28351;51.480;5.706;2023-03-05T14:36:59;1.70;;;1.25;;
42714;SDS011;28351;51.480;5.706;2023-03-05T14:39:29;1.58;;;1.17;;
42714;SDS011;28351;51.480;5.706;2023-03-05T14:44:45;1.50;;;1.23;;
42714;SDS011;28351;51.480;5.706;2023-03-05T14:47:11;2.50;;;1.65;;
42714;SDS011;28351;51.480;5.706;2023-03-05T14:49:36;3.97;;;1.35;;
42714;SDS011;28351;51.480;5.706;2023-03-05T14:52:02;2.63;;;2.15;;
42714;SDS011;28351;51.480;5.706;2023-03-05T14:54:28;3.40;;;1.48;;
42714;SDS011;28351;51.480;5.706;2023-03-05T14:57:00;1.88;;;1.20;;
42714;SDS011;28351;51.480;5.706;2023-03-05T14:59:25;2.97;;;1.17;;
42714;SDS011;28351;51.480;5.706;2023-03-05T15:01:51;2.42;;;1.17;;
42714;SDS011;28351;51.480;5.706;2023-03-05T15:04:16;1.92;;;1.20;;
42714;SDS011;28351;51.480;5.706;2023-03-05T15:06:45;1.85;;;1.42;;
42714;SDS011;28351;51.480;5.706;2023-03-05T15:09:14;2.75;;;1.00;;
42714;SDS011;28351;51.480;5.706;2023-03-05T15:11:44;3.03;;;1.17;;
42714;SDS011;28351;51.480;5.706;2023-03-05T15:14:10;1.95;;;1.25;;
42714;SDS011;28351;51.480;5.706;2023-03-05T15:16:37;2.15;;;1.27;;
42714;SDS011;28351;51.480;5.706;2023-03-05T15:19:08;2.80;;;1.00;;
42714;SDS011;28351;51.480;5.706;2023-03-05T15:21:36;2.38;;;1.30;;
42714;SDS011;28351;51.480;5.706;2023-03-05T15:24:02;3.97;;;1.50;;
42714;SDS011;28351;51.480;5.706;2023-03-05T15:26:28;2.38;;;1.33;;
42714;SDS011;28351;51.480;5.706;2023-03-05T15:28:53;3.40;;;1.20;;
42714;SDS011;28351;51.480;5.706;2023-03-05T15:31:19;2.35;;;1.05;;
42714;SDS011;28351;51.480;5.706;2023-03-05T15:33:44;5.47;;;1.65;;
42714;SDS011;28351;51.480;5.706;2023-03-05T15:36:10;1.45;;;1.05;;
42714;SDS011;28351;51.480;5.706;2023-03-05T15:38:36;3.15;;;1.20;;
42714;SDS011;28351;51.480;5.706;2023-03-05T15:41:03;6.07;;;1.40;;
42714;SDS011;28351;51.480;5.706;2023-03-05T15:43:29;3.22;;;1.17;;
42714;SDS011;28351;51.480;5.706;2023-03-05T15:45:55;6.53;;;1.55;;
42714;SDS011;28351;51.480;5.706;2023-03-05T15:48:20;1.90;;;1.40;;
42714;SDS011;28351;51.480;5.706;2023-03-05T15:50:46;2.58;;;1.30;;
42714;SDS011;28351;51.480;5.706;2023-03-05T15:53:12;2.92;;;1.45;;
42714;SDS011;28351;51.480;5.706;2023-03-05T15:55:42;3.08;;;1.30;;
42714;SDS011;28351;51.480;5.706;2023-03-05T15:58:12;4.57;;;2.08;;
42714;SDS011;28351;51.480;5.706;2023-03-05T16:00:40;3.88;;;1.80;;
42714;SDS011;28351;51.480;5.706;2023-03-05T16:03:06;2.70;;;1.50;;
42714;SDS011;28351;51.480;5.706;2023-03-05T16:05:32;2.17;;;1.40;;
42714;SDS011;28351;51.480;5.706;2023-03-05T16:08:03;2.45;;;1.48;;
42714;SDS011;28351;51.480;5.706;2023-03-05T16:10:30;3.72;;;1.10;;
42714;SDS011;28351;51.480;5.706;2023-03-05T16:13:17;1.73;;;1.15;;
42714;SDS011;28351;51.480;5.706;2023-03-05T16:15:41;1.27;;;1.17;;
42714;SDS011;28351;51.480;5.706;2023-03-05T16:18:09;3.30;;;1.10;;
42714;SDS011;28351;51.480;5.706;2023-03-05T16:20:39;2.70;;;1.20;;
42714;SDS011;28351;51.480;5.706;2023-03-05T16:23:04;1.75;;;1.20;;
42714;SDS011;28351;51.480;5.706;2023-03-05T16:25:30;2.33;;;1.00;;
42714;SDS011;28351;51.480;5.706;2023-03-05T16:27:56;3.30;;;1.70;;
42714;SDS011;28351;51.480;5.706;2023-03-05T16:30:21;6.57;;;1.77;;
42714;SDS011;28351;51.480;5.706;2023-03-05T16:32:47;6.68;;;2.85;;
42714;SDS011;28351;51.480;5.706;2023-03-05T16:35:13;8.50;;;3.92;;
42714;SDS011;28351;51.480;5.706;2023-03-05T16:37:39;4.90;;;3.08;;
42714;SDS011;28351;51.480;5.706;2023-03-05T16:40:06;6.25;;;3.53;;
42714;SDS011;28351;51.480;5.706;2023-03-05T16:42:33;3.97;;;2.80;;